sensor_id;sensor_type;location;lat;lon;timestamp;temperature;humidity
770;DHT22;368;48.698;9.116;2023-05-23T00:00:56;15.70;99.90
770;DHT22;368;48.698;9.116;2023-05-23T00:03:23;15.40;99.90
770;DHT22;368;48.698;9.116;2023-05-23T00:05:50;15.50;99.90
770;DHT22;368;48.698;9.116;2023-05-23T00:08:17;15.80;99.90
770;DHT22;368;48.698;9.116;2023-05-23T00:10:44;15.90;99.90
770;DHT22;368;48.698;9.116;2023-05-23T00:13:13;15.90;99.90
770;DHT22;368;48.698;9.116;2023-05-23T00:15:40;16.00;99.90
770;DHT22;368;48.698;9.116;2023-05-23T00:18:07;16.10;99.90
770;DHT22;368;48.698;9.116;2023-05-23T00:20:35;16.00;99.90
770;DHT22;368;48.698;9.116;2023-05-23T00:23:05;16.10;99.90
770;DHT22;368;48.698;9.116;2023-05-23T00:25:32;15.90;99.90
770;DHT22;368;48.698;9.116;2023-05-23T00:28:00;16.10;99.90
770;DHT22;368;48.698;9.116;2023-05-23T00:30:29;15.90;99.90
770;DHT22;368;48.698;9.116;2023-05-23T00:32:56;15.80;99.90
770;DHT22;368;48.698;9.116;2023-05-23T00:35:23;16.00;99.90
770;DHT22;368;48.698;9.116;2023-05-23T00:37:50;16.00;99.90
770;DHT22;368;48.698;9.116;2023-05-23T00:40:17;15.80;99.90
770;DHT22;368;48.698;9.116;2023-05-23T00:42:44;15.80;99.90
770;DHT22;368;48.698;9.116;2023-05-23T00:45:11;15.90;99.90
770;DHT22;368;48.698;9.116;2023-05-23T00:47:39;15.90;99.90
770;DHT22;368;48.698;9.116;2023-05-23T00:50:10;15.60;99.90
770;DHT22;368;48.698;9.116;2023-05-23T00:52:37;15.90;99.90
770;DHT22;368;48.698;9.116;2023-05-23T00:55:05;15.70;99.90
770;DHT22;368;48.698;9.116;2023-05-23T00:57:33;15.80;99.90
770;DHT22;368;48.698;9.116;2023-05-23T01:00:00;15.50;99.90
770;DHT22;368;48.698;9.116;2023-05-23T01:02:28;15.40;99.90
770;DHT22;368;48.698;9.116;2023-05-23T01:04:58;15.50;99.90
770;DHT22;368;48.698;9.116;2023-05-23T01:07:26;15.20;99.90
770;DHT22;368;48.698;9.116;2023-05-23T01:09:53;15.30;99.90
770;DHT22;368;48.698;9.116;2023-05-23T01:12:27;15.10;99.90
770;DHT22;368;48.698;9.116;2023-05-23T01:15:01;15.20;99.90
770;DHT22;368;48.698;9.116;2023-05-23T01:17:35;14.90;99.90
770;DHT22;368;48.698;9.116;2023-05-23T01:20:10;14.60;99.90
770;DHT22;368;48.698;9.116;2023-05-23T01:26:01;15.10;99.90
770;DHT22;368;48.698;9.116;2023-05-23T01:28:32;15.40;99.90
770;DHT22;368;48.698;9.116;2023-05-23T01:31:03;15.30;99.90
770;DHT22;368;48.698;9.116;2023-05-23T01:33:31;15.40;99.90
770;DHT22;368;48.698;9.116;2023-05-23T01:36:01;15.00;99.90
770;DHT22;368;48.698;9.116;2023-05-23T01:38:28;14.70;99.90
770;DHT22;368;48.698;9.116;2023-05-23T01:40:55;14.90;99.90
770;DHT22;368;48.698;9.116;2023-05-23T01:43:24;14.70;99.90
770;DHT22;368;48.698;9.116;2023-05-23T01:45:53;14.70;99.90
770;DHT22;368;48.698;9.116;2023-05-23T01:48:21;15.00;99.90
770;DHT22;368;48.698;9.116;2023-05-23T01:50:49;14.80;99.90
770;DHT22;368;48.698;9.116;2023-05-23T01:53:19;15.00;99.90
770;DHT22;368;48.698;9.116;2023-05-23T01:55:46;14.80;99.90
770;DHT22;368;48.698;9.116;2023-05-23T01:58:13;15.10;99.90
770;DHT22;368;48.698;9.116;2023-05-23T02:00:40;15.00;99.90
770;DHT22;368;48.698;9.116;2023-05-23T02:03:08;15.30;99.90
770;DHT22;368;48.698;9.116;2023-05-23T02:05:36;15.10;99.90
770;DHT22;368;48.698;9.116;2023-05-23T02:08:02;15.00;99.90
770;DHT22;368;48.698;9.116;2023-05-23T02:10:29;14.80;99.90
770;DHT22;368;48.698;9.116;2023-05-23T02:12:56;14.80;99.90
770;DHT22;368;48.698;9.116;2023-05-23T02:15:23;14.70;99.90
770;DHT22;368;48.698;9.116;2023-05-23T02:17:49;14.50;99.90
770;DHT22;368;48.698;9.116;2023-05-23T02:20:18;14.40;99.90
770;DHT22;368;48.698;9.116;2023-05-23T02:22:45;14.60;99.90
770;DHT22;368;48.698;9.116;2023-05-23T02:25:11;14.90;99.90
770;DHT22;368;48.698;9.116;2023-05-23T02:27:40;14.60;99.90
770;DHT22;368;48.698;9.116;2023-05-23T02:30:07;14.80;99.90
770;DHT22;368;48.698;9.116;2023-05-23T02:32:34;14.50;99.90
770;DHT22;368;48.698;9.116;2023-05-23T02:35:02;14.40;99.90
770;DHT22;368;48.698;9.116;2023-05-23T02:37:30;14.20;99.90
770;DHT22;368;48.698;9.116;2023-05-23T02:40:03;14.50;99.90
770;DHT22;368;48.698;9.116;2023-05-23T02:42:31;14.20;99.90
770;DHT22;368;48.698;9.116;2023-05-23T02:44:58;14.40;99.90
770;DHT22;368;48.698;9.116;2023-05-23T02:47:26;14.20;99.90
770;DHT22;368;48.698;9.116;2023-05-23T02:49:52;14.50;99.90
770;DHT22;368;48.698;9.116;2023-05-23T02:52:19;14.30;99.90
770;DHT22;368;48.698;9.116;2023-05-23T02:54:47;14.60;99.90
770;DHT22;368;48.698;9.116;2023-05-23T02:57:14;14.40;99.90
770;DHT22;368;48.698;9.116;2023-05-23T02:59:41;14.90;99.90
770;DHT22;368;48.698;9.116;2023-05-23T03:02:08;14.80;99.90
770;DHT22;368;48.698;9.116;2023-05-23T03:04:34;14.70;99.90
770;DHT22;368;48.698;9.116;2023-05-23T03:07:02;15.10;99.90
770;DHT22;368;48.698;9.116;2023-05-23T03:09:30;15.00;99.90
770;DHT22;368;48.698;9.116;2023-05-23T03:11:59;15.10;99.90
770;DHT22;368;48.698;9.116;2023-05-23T03:14:25;15.20;99.90
770;DHT22;368;48.698;9.116;2023-05-23T03:16:52;15.20;99.90
770;DHT22;368;48.698;9.116;2023-05-23T03:19:19;15.20;99.90
770;DHT22;368;48.698;9.116;2023-05-23T03:21:45;15.30;99.90
770;DHT22;368;48.698;9.116;2023-05-23T03:24:14;15.30;99.90
770;DHT22;368;48.698;9.116;2023-05-23T03:26:41;15.20;99.90
770;DHT22;368;48.698;9.116;2023-05-23T03:29:09;15.30;99.90
770;DHT22;368;48.698;9.116;2023-05-23T03:31:36;15.20;99.90
770;DHT22;368;48.698;9.116;2023-05-23T03:34:03;15.20;99.90
770;DHT22;368;48.698;9.116;2023-05-23T03:36:30;15.40;99.90
770;DHT22;368;48.698;9.116;2023-05-23T03:38:58;15.40;99.90
770;DHT22;368;48.698;9.116;2023-05-23T03:41:25;15.60;99.90
770;DHT22;368;48.698;9.116;2023-05-23T03:43:52;15.40;99.90
770;DHT22;368;48.698;9.116;2023-05-23T03:46:20;15.60;99.90
770;DHT22;368;48.698;9.116;2023-05-23T03:48:47;15.50;99.90
770;DHT22;368;48.698;9.116;2023-05-23T03:51:13;15.50;99.90
770;DHT22;368;48.698;9.116;2023-05-23T03:53:40;15.70;99.90
770;DHT22;368;48.698;9.116;2023-05-23T03:56:07;15.70;99.90
770;DHT22;368;48.698;9.116;2023-05-23T03:58:34;15.60;99.90
770;DHT22;368;48.698;9.116;2023-05-23T04:01:00;15.60;99.90
770;DHT22;368;48.698;9.116;2023-05-23T04:03:29;15.70;99.90
770;DHT22;368;48.698;9.116;2023-05-23T04:05:57;15.70;99.90
770;DHT22;368;48.698;9.116;2023-05-23T04:08:25;15.70;99.90
770;DHT22;368;48.698;9.116;2023-05-23T04:10:52;15.70;99.90
770;DHT22;368;48.698;9.116;2023-05-23T04:13:18;15.80;99.90
770;DHT22;368;48.698;9.116;2023-05-23T04:15:46;16.00;99.90
770;DHT22;368;48.698;9.116;2023-05-23T04:18:13;15.80;99.90
770;DHT22;368;48.698;9.116;2023-05-23T04:20:43;15.80;99.90
770;DHT22;368;48.698;9.116;2023-05-23T04:23:10;15.80;99.90
770;DHT22;368;48.698;9.116;2023-05-23T04:25:36;15.80;99.90
770;DHT22;368;48.698;9.116;2023-05-23T04:28:03;16.00;99.90
770;DHT22;368;48.698;9.116;2023-05-23T04:30:30;16.00;99.90
770;DHT22;368;48.698;9.116;2023-05-23T04:32:57;15.90;99.90
770;DHT22;368;48.698;9.116;2023-05-23T04:35:24;16.00;99.90
770;DHT22;368;48.698;9.116;2023-05-23T04:37:54;16.00;99.90
770;DHT22;368;48.698;9.116;2023-05-23T04:40:21;16.00;99.90
770;DHT22;368;48.698;9.116;2023-05-23T04:42:48;16.20;99.90
770;DHT22;368;48.698;9.116;2023-05-23T04:45:16;16.20;99.90
770;DHT22;368;48.698;9.116;2023-05-23T04:47:44;16.10;99.90
770;DHT22;368;48.698;9.116;2023-05-23T04:50:11;16.10;99.90
770;DHT22;368;48.698;9.116;2023-05-23T04:52:39;16.30;99.90
770;DHT22;368;48.698;9.116;2023-05-23T04:55:08;16.30;99.90
770;DHT22;368;48.698;9.116;2023-05-23T04:57:34;16.20;99.90
770;DHT22;368;48.698;9.116;2023-05-23T05:00:02;16.00;99.90
770;DHT22;368;48.698;9.116;2023-05-23T05:02:32;16.20;99.90
770;DHT22;368;48.698;9.116;2023-05-23T05:04:59;16.20;99.90
770;DHT22;368;48.698;9.116;2023-05-23T05:07:26;16.20;99.90
770;DHT22;368;48.698;9.116;2023-05-23T05:09:54;16.10;99.90
770;DHT22;368;48.698;9.116;2023-05-23T05:12:22;16.30;99.90
770;DHT22;368;48.698;9.116;2023-05-23T05:14:49;16.40;99.90
770;DHT22;368;48.698;9.116;2023-05-23T05:17:16;16.30;99.90
770;DHT22;368;48.698;9.116;2023-05-23T05:19:44;16.40;99.90
770;DHT22;368;48.698;9.116;2023-05-23T05:22:11;16.40;99.90
770;DHT22;368;48.698;9.116;2023-05-23T05:24:38;16.20;99.90
770;DHT22;368;48.698;9.116;2023-05-23T05:27:06;16.30;99.90
770;DHT22;368;48.698;9.116;2023-05-23T05:29:35;16.30;99.90
770;DHT22;368;48.698;9.116;2023-05-23T05:32:02;16.30;99.90
770;DHT22;368;48.698;9.116;2023-05-23T05:34:29;16.30;99.90
770;DHT22;368;48.698;9.116;2023-05-23T05:36:56;16.40;99.90
770;DHT22;368;48.698;9.116;2023-05-23T05:39:23;16.20;99.90
770;DHT22;368;48.698;9.116;2023-05-23T05:41:51;16.30;99.90
770;DHT22;368;48.698;9.116;2023-05-23T05:44:17;16.20;99.90
770;DHT22;368;48.698;9.116;2023-05-23T05:46:45;16.30;99.90
770;DHT22;368;48.698;9.116;2023-05-23T05:49:12;16.20;99.90
770;DHT22;368;48.698;9.116;2023-05-23T05:51:39;16.20;99.90
770;DHT22;368;48.698;9.116;2023-05-23T05:54:06;16.30;99.90
770;DHT22;368;48.698;9.116;2023-05-23T05:56:33;16.20;99.90
770;DHT22;368;48.698;9.116;2023-05-23T05:59:00;16.20;99.90
770;DHT22;368;48.698;9.116;2023-05-23T06:01:27;16.00;99.90
770;DHT22;368;48.698;9.116;2023-05-23T06:03:56;16.40;99.90
770;DHT22;368;48.698;9.116;2023-05-23T06:06:23;16.40;99.90
770;DHT22;368;48.698;9.116;2023-05-23T06:08:50;16.40;99.90
770;DHT22;368;48.698;9.116;2023-05-23T06:11:18;16.50;99.90
770;DHT22;368;48.698;9.116;2023-05-23T06:13:44;16.60;99.90
770;DHT22;368;48.698;9.116;2023-05-23T06:16:11;16.70;99.90
770;DHT22;368;48.698;9.116;2023-05-23T06:18:39;16.90;99.90
770;DHT22;368;48.698;9.116;2023-05-23T06:21:08;17.00;99.90
770;DHT22;368;48.698;9.116;2023-05-23T06:23:35;16.90;99.90
770;DHT22;368;48.698;9.116;2023-05-23T06:26:01;16.90;99.90
770;DHT22;368;48.698;9.116;2023-05-23T06:28:32;16.90;99.90
770;DHT22;368;48.698;9.116;2023-05-23T06:30:59;17.00;99.90
770;DHT22;368;48.698;9.116;2023-05-23T06:33:26;16.90;99.90
770;DHT22;368;48.698;9.116;2023-05-23T06:35:53;17.10;99.90
770;DHT22;368;48.698;9.116;2023-05-23T06:38:21;17.20;99.90
770;DHT22;368;48.698;9.116;2023-05-23T06:40:48;17.30;99.90
770;DHT22;368;48.698;9.116;2023-05-23T06:43:15;17.10;99.90
770;DHT22;368;48.698;9.116;2023-05-23T06:45:43;17.10;99.90
770;DHT22;368;48.698;9.116;2023-05-23T06:48:10;17.00;99.90
770;DHT22;368;48.698;9.116;2023-05-23T06:50:37;17.20;99.90
770;DHT22;368;48.698;9.116;2023-05-23T06:53:04;17.00;99.90
770;DHT22;368;48.698;9.116;2023-05-23T06:55:32;17.10;99.90
770;DHT22;368;48.698;9.116;2023-05-23T06:57:59;16.80;99.90
770;DHT22;368;48.698;9.116;2023-05-23T07:00:28;16.90;99.90
770;DHT22;368;48.698;9.116;2023-05-23T07:02:55;17.00;99.90
770;DHT22;368;48.698;9.116;2023-05-23T07:05:25;16.70;99.90
770;DHT22;368;48.698;9.116;2023-05-23T07:07:52;16.70;99.90
770;DHT22;368;48.698;9.116;2023-05-23T07:10:19;16.70;99.90
770;DHT22;368;48.698;9.116;2023-05-23T07:12:48;16.50;99.90
770;DHT22;368;48.698;9.116;2023-05-23T07:15:15;16.60;99.90
770;DHT22;368;48.698;9.116;2023-05-23T07:17:42;16.40;99.90
770;DHT22;368;48.698;9.116;2023-05-23T07:20:09;16.30;99.90
770;DHT22;368;48.698;9.116;2023-05-23T07:22:36;16.20;99.90
770;DHT22;368;48.698;9.116;2023-05-23T07:25:04;15.90;99.90
770;DHT22;368;48.698;9.116;2023-05-23T07:27:30;15.80;99.90
770;DHT22;368;48.698;9.116;2023-05-23T07:29:59;16.20;99.90
770;DHT22;368;48.698;9.116;2023-05-23T07:32:25;16.10;99.90
770;DHT22;368;48.698;9.116;2023-05-23T07:34:52;16.00;99.90
770;DHT22;368;48.698;9.116;2023-05-23T07:37:19;16.10;99.90
770;DHT22;368;48.698;9.116;2023-05-23T07:39:46;16.10;99.90
770;DHT22;368;48.698;9.116;2023-05-23T07:42:12;16.10;99.90
770;DHT22;368;48.698;9.116;2023-05-23T07:44:40;15.80;99.90
770;DHT22;368;48.698;9.116;2023-05-23T07:47:08;15.70;99.90
770;DHT22;368;48.698;9.116;2023-05-23T07:49:35;15.80;99.90
770;DHT22;368;48.698;9.116;2023-05-23T07:52:02;15.80;99.90
770;DHT22;368;48.698;9.116;2023-05-23T07:54:28;15.70;99.90
770;DHT22;368;48.698;9.116;2023-05-23T07:56:55;15.80;99.90
770;DHT22;368;48.698;9.116;2023-05-23T07:59:22;15.80;99.90
770;DHT22;368;48.698;9.116;2023-05-23T08:01:49;15.60;99.90
770;DHT22;368;48.698;9.116;2023-05-23T08:04:17;15.70;99.90
770;DHT22;368;48.698;9.116;2023-05-23T08:06:44;16.00;99.90
770;DHT22;368;48.698;9.116;2023-05-23T08:09:12;16.40;99.90
770;DHT22;368;48.698;9.116;2023-05-23T08:11:40;16.50;99.90
770;DHT22;368;48.698;9.116;2023-05-23T08:14:06;16.50;99.90
770;DHT22;368;48.698;9.116;2023-05-23T08:16:34;16.50;99.90
770;DHT22;368;48.698;9.116;2023-05-23T08:19:01;16.70;99.90
770;DHT22;368;48.698;9.116;2023-05-23T08:21:29;16.90;99.90
770;DHT22;368;48.698;9.116;2023-05-23T08:23:57;16.60;99.90
770;DHT22;368;48.698;9.116;2023-05-23T08:26:24;16.60;99.90
770;DHT22;368;48.698;9.116;2023-05-23T08:28:52;16.70;99.90
770;DHT22;368;48.698;9.116;2023-05-23T08:31:19;16.90;99.90
770;DHT22;368;48.698;9.116;2023-05-23T08:33:46;16.80;99.90
770;DHT22;368;48.698;9.116;2023-05-23T08:36:13;16.80;99.90
770;DHT22;368;48.698;9.116;2023-05-23T08:38:41;16.70;99.90
770;DHT22;368;48.698;9.116;2023-05-23T08:41:12;16.20;99.90
770;DHT22;368;48.698;9.116;2023-05-23T08:43:41;16.40;99.90
770;DHT22;368;48.698;9.116;2023-05-23T08:46:08;16.20;99.90
770;DHT22;368;48.698;9.116;2023-05-23T08:48:36;16.50;99.90
770;DHT22;368;48.698;9.116;2023-05-23T08:51:03;15.70;99.90
770;DHT22;368;48.698;9.116;2023-05-23T08:53:31;15.60;99.90
770;DHT22;368;48.698;9.116;2023-05-23T08:56:01;15.70;99.90
770;DHT22;368;48.698;9.116;2023-05-23T08:58:29;15.80;99.90
770;DHT22;368;48.698;9.116;2023-05-23T09:00:58;15.90;99.90
770;DHT22;368;48.698;9.116;2023-05-23T09:03:26;15.90;99.90
770;DHT22;368;48.698;9.116;2023-05-23T09:05:54;16.00;99.90
770;DHT22;368;48.698;9.116;2023-05-23T09:08:22;16.00;99.90
770;DHT22;368;48.698;9.116;2023-05-23T09:10:50;16.30;99.90
770;DHT22;368;48.698;9.116;2023-05-23T09:13:18;16.50;99.90
770;DHT22;368;48.698;9.116;2023-05-23T09:16:02;16.20;99.90
770;DHT22;368;48.698;9.116;2023-05-23T09:18:32;16.70;99.90
770;DHT22;368;48.698;9.116;2023-05-23T09:21:00;16.70;99.90
770;DHT22;368;48.698;9.116;2023-05-23T09:23:29;16.90;99.90
770;DHT22;368;48.698;9.116;2023-05-23T09:25:56;16.80;99.90
770;DHT22;368;48.698;9.116;2023-05-23T09:28:28;16.40;99.90
770;DHT22;368;48.698;9.116;2023-05-23T09:30:58;16.20;99.90
770;DHT22;368;48.698;9.116;2023-05-23T09:33:29;16.60;99.90
770;DHT22;368;48.698;9.116;2023-05-23T09:35:58;17.10;99.90
770;DHT22;368;48.698;9.116;2023-05-23T09:38:25;17.20;99.90
770;DHT22;368;48.698;9.116;2023-05-23T09:40:53;17.20;99.90
770;DHT22;368;48.698;9.116;2023-05-23T09:43:22;17.60;99.90
770;DHT22;368;48.698;9.116;2023-05-23T09:45:52;18.30;99.90
770;DHT22;368;48.698;9.116;2023-05-23T09:48:19;18.90;99.90
770;DHT22;368;48.698;9.116;2023-05-23T09:50:45;19.00;99.90
770;DHT22;368;48.698;9.116;2023-05-23T09:53:15;19.30;99.90
770;DHT22;368;48.698;9.116;2023-05-23T09:55:46;19.80;99.90
770;DHT22;368;48.698;9.116;2023-05-23T09:58:14;18.90;99.90
770;DHT22;368;48.698;9.116;2023-05-23T10:00:44;19.40;99.90
770;DHT22;368;48.698;9.116;2023-05-23T10:03:15;19.90;99.90
770;DHT22;368;48.698;9.116;2023-05-23T10:05:45;20.70;99.90
770;DHT22;368;48.698;9.116;2023-05-23T10:08:15;19.90;99.90
770;DHT22;368;48.698;9.116;2023-05-23T10:14:00;18.30;99.90
770;DHT22;368;48.698;9.116;2023-05-23T10:16:32;18.20;99.90
770;DHT22;368;48.698;9.116;2023-05-23T10:19:06;18.30;99.90
770;DHT22;368;48.698;9.116;2023-05-23T10:21:43;18.70;99.90
770;DHT22;368;48.698;9.116;2023-05-23T10:24:15;18.40;99.90
770;DHT22;368;48.698;9.116;2023-05-23T10:26:43;18.60;99.90
770;DHT22;368;48.698;9.116;2023-05-23T10:29:10;18.90;99.90
770;DHT22;368;48.698;9.116;2023-05-23T10:31:37;18.70;99.90
770;DHT22;368;48.698;9.116;2023-05-23T10:34:13;18.90;99.90
770;DHT22;368;48.698;9.116;2023-05-23T10:36:47;19.20;99.90
770;DHT22;368;48.698;9.116;2023-05-23T10:39:18;19.20;99.90
770;DHT22;368;48.698;9.116;2023-05-23T10:41:52;20.00;99.70
770;DHT22;368;48.698;9.116;2023-05-23T10:44:24;19.90;99.30
770;DHT22;368;48.698;9.116;2023-05-23T10:46:53;20.40;98.40
770;DHT22;368;48.698;9.116;2023-05-23T10:49:36;20.60;98.30
770;DHT22;368;48.698;9.116;2023-05-23T10:52:03;20.00;99.50
770;DHT22;368;48.698;9.116;2023-05-23T10:54:33;20.20;98.60
770;DHT22;368;48.698;9.116;2023-05-23T10:57:04;20.00;98.80
770;DHT22;368;48.698;9.116;2023-05-23T10:59:31;19.50;99.60
770;DHT22;368;48.698;9.116;2023-05-23T11:01:59;19.00;99.90
770;DHT22;368;48.698;9.116;2023-05-23T11:04:28;19.00;99.90
770;DHT22;368;48.698;9.116;2023-05-23T11:06:55;19.40;99.70
770;DHT22;368;48.698;9.116;2023-05-23T11:09:22;19.10;99.90
770;DHT22;368;48.698;9.116;2023-05-23T11:11:59;20.10;99.10
770;DHT22;368;48.698;9.116;2023-05-23T11:14:52;20.00;99.40
770;DHT22;368;48.698;9.116;2023-05-23T11:17:30;20.10;99.60
770;DHT22;368;48.698;9.116;2023-05-23T11:20:02;19.60;98.60
770;DHT22;368;48.698;9.116;2023-05-23T11:22:31;20.00;98.20
770;DHT22;368;48.698;9.116;2023-05-23T11:25:00;20.20;98.70
770;DHT22;368;48.698;9.116;2023-05-23T11:27:28;20.20;97.00
770;DHT22;368;48.698;9.116;2023-05-23T11:29:59;19.90;98.20
770;DHT22;368;48.698;9.116;2023-05-23T11:32:27;20.30;98.80
770;DHT22;368;48.698;9.116;2023-05-23T11:34:59;20.40;97.70
770;DHT22;368;48.698;9.116;2023-05-23T11:37:27;19.80;98.00
770;DHT22;368;48.698;9.116;2023-05-23T11:39:54;20.00;97.10
770;DHT22;368;48.698;9.116;2023-05-23T11:42:21;20.30;98.00
770;DHT22;368;48.698;9.116;2023-05-23T11:44:48;20.00;97.70
770;DHT22;368;48.698;9.116;2023-05-23T11:47:15;19.90;98.30
770;DHT22;368;48.698;9.116;2023-05-23T11:49:44;19.90;96.70
770;DHT22;368;48.698;9.116;2023-05-23T11:52:12;20.40;98.00
770;DHT22;368;48.698;9.116;2023-05-23T11:54:40;21.10;95.50
770;DHT22;368;48.698;9.116;2023-05-23T11:57:07;20.40;97.60
770;DHT22;368;48.698;9.116;2023-05-23T11:59:34;20.40;97.00
770;DHT22;368;48.698;9.116;2023-05-23T12:02:01;20.30;97.30
770;DHT22;368;48.698;9.116;2023-05-23T12:04:28;20.90;96.50
770;DHT22;368;48.698;9.116;2023-05-23T12:06:55;20.70;95.80
770;DHT22;368;48.698;9.116;2023-05-23T12:09:23;20.20;95.80
770;DHT22;368;48.698;9.116;2023-05-23T12:11:50;20.60;95.60
770;DHT22;368;48.698;9.116;2023-05-23T12:14:17;20.50;95.80
770;DHT22;368;48.698;9.116;2023-05-23T12:16:45;20.90;96.00
770;DHT22;368;48.698;9.116;2023-05-23T12:19:12;21.10;95.10
770;DHT22;368;48.698;9.116;2023-05-23T12:21:41;21.90;95.30
770;DHT22;368;48.698;9.116;2023-05-23T12:24:15;21.40;94.70
770;DHT22;368;48.698;9.116;2023-05-23T12:26:49;20.70;96.10
770;DHT22;368;48.698;9.116;2023-05-23T12:29:18;20.70;95.80
770;DHT22;368;48.698;9.116;2023-05-23T12:31:47;20.80;95.90
770;DHT22;368;48.698;9.116;2023-05-23T12:34:14;21.70;95.50
770;DHT22;368;48.698;9.116;2023-05-23T12:36:41;22.80;92.90
770;DHT22;368;48.698;9.116;2023-05-23T12:39:10;24.40;88.90
770;DHT22;368;48.698;9.116;2023-05-23T12:41:40;23.40;87.50
770;DHT22;368;48.698;9.116;2023-05-23T12:44:10;24.10;87.50
770;DHT22;368;48.698;9.116;2023-05-23T12:46:38;24.50;89.60
770;DHT22;368;48.698;9.116;2023-05-23T12:49:05;24.50;87.00
770;DHT22;368;48.698;9.116;2023-05-23T12:51:32;21.70;92.50
770;DHT22;368;48.698;9.116;2023-05-23T12:53:59;22.30;92.80
770;DHT22;368;48.698;9.116;2023-05-23T12:56:26;21.30;93.10
770;DHT22;368;48.698;9.116;2023-05-23T12:58:53;21.30;93.30
770;DHT22;368;48.698;9.116;2023-05-23T13:01:21;22.50;91.70
770;DHT22;368;48.698;9.116;2023-05-23T13:03:48;21.80;91.40
770;DHT22;368;48.698;9.116;2023-05-23T13:06:15;21.20;91.60
770;DHT22;368;48.698;9.116;2023-05-23T13:08:42;20.80;92.20
770;DHT22;368;48.698;9.116;2023-05-23T13:11:09;21.20;92.80
770;DHT22;368;48.698;9.116;2023-05-23T13:13:36;22.30;90.70
770;DHT22;368;48.698;9.116;2023-05-23T13:16:03;23.70;87.40
770;DHT22;368;48.698;9.116;2023-05-23T13:18:31;23.70;90.20
770;DHT22;368;48.698;9.116;2023-05-23T13:20:58;23.10;88.60
770;DHT22;368;48.698;9.116;2023-05-23T13:23:25;21.50;90.70
770;DHT22;368;48.698;9.116;2023-05-23T13:25:52;20.80;92.60
770;DHT22;368;48.698;9.116;2023-05-23T13:28:18;21.90;91.10
770;DHT22;368;48.698;9.116;2023-05-23T13:30:45;22.50;90.10
770;DHT22;368;48.698;9.116;2023-05-23T13:33:12;22.40;92.40
770;DHT22;368;48.698;9.116;2023-05-23T13:35:40;21.80;90.90
770;DHT22;368;48.698;9.116;2023-05-23T13:38:08;21.70;90.70
770;DHT22;368;48.698;9.116;2023-05-23T13:40:35;21.50;90.30
770;DHT22;368;48.698;9.116;2023-05-23T13:43:01;21.40;90.60
770;DHT22;368;48.698;9.116;2023-05-23T13:45:28;21.00;91.70
770;DHT22;368;48.698;9.116;2023-05-23T13:47:55;20.20;93.10
770;DHT22;368;48.698;9.116;2023-05-23T13:50:22;19.50;94.70
770;DHT22;368;48.698;9.116;2023-05-23T13:52:50;19.40;95.60
770;DHT22;368;48.698;9.116;2023-05-23T13:55:17;19.50;95.90
770;DHT22;368;48.698;9.116;2023-05-23T13:57:44;19.40;96.50
770;DHT22;368;48.698;9.116;2023-05-23T14:00:12;19.60;96.20
770;DHT22;368;48.698;9.116;2023-05-23T14:02:38;19.80;95.10
770;DHT22;368;48.698;9.116;2023-05-23T14:05:06;19.80;95.00
770;DHT22;368;48.698;9.116;2023-05-23T14:07:33;19.90;95.00
770;DHT22;368;48.698;9.116;2023-05-23T14:10:01;20.20;95.80
770;DHT22;368;48.698;9.116;2023-05-23T14:12:29;19.90;95.50
770;DHT22;368;48.698;9.116;2023-05-23T14:14:56;19.60;95.80
770;DHT22;368;48.698;9.116;2023-05-23T14:17:23;19.90;94.40
770;DHT22;368;48.698;9.116;2023-05-23T14:19:50;19.90;95.10
770;DHT22;368;48.698;9.116;2023-05-23T14:22:17;20.00;94.70
770;DHT22;368;48.698;9.116;2023-05-23T14:24:44;19.80;95.20
770;DHT22;368;48.698;9.116;2023-05-23T14:27:12;19.80;94.80
770;DHT22;368;48.698;9.116;2023-05-23T14:29:39;19.50;95.30
770;DHT22;368;48.698;9.116;2023-05-23T14:32:10;19.90;94.70
770;DHT22;368;48.698;9.116;2023-05-23T14:34:37;20.00;95.40
770;DHT22;368;48.698;9.116;2023-05-23T14:37:04;20.50;94.70
770;DHT22;368;48.698;9.116;2023-05-23T14:53:55;21.00;94.90
770;DHT22;368;48.698;9.116;2023-05-23T14:56:22;20.50;94.50
770;DHT22;368;48.698;9.116;2023-05-23T14:58:51;20.10;93.80
770;DHT22;368;48.698;9.116;2023-05-23T15:01:17;19.30;95.30
770;DHT22;368;48.698;9.116;2023-05-23T15:03:44;19.20;96.60
770;DHT22;368;48.698;9.116;2023-05-23T15:06:11;19.30;95.50
770;DHT22;368;48.698;9.116;2023-05-23T15:08:38;19.60;96.00
770;DHT22;368;48.698;9.116;2023-05-23T15:11:07;19.60;95.70
770;DHT22;368;48.698;9.116;2023-05-23T15:13:34;19.80;95.40
770;DHT22;368;48.698;9.116;2023-05-23T15:16:01;20.30;95.00
770;DHT22;368;48.698;9.116;2023-05-23T15:18:27;20.70;94.70
770;DHT22;368;48.698;9.116;2023-05-23T15:20:54;21.10;93.60
770;DHT22;368;48.698;9.116;2023-05-23T15:23:21;21.50;93.00
770;DHT22;368;48.698;9.116;2023-05-23T15:25:48;21.20;93.30
770;DHT22;368;48.698;9.116;2023-05-23T15:28:16;21.30;93.10
770;DHT22;368;48.698;9.116;2023-05-23T15:30:43;20.90;93.70
770;DHT22;368;48.698;9.116;2023-05-23T15:33:10;20.80;94.20
770;DHT22;368;48.698;9.116;2023-05-23T15:35:37;21.30;94.00
770;DHT22;368;48.698;9.116;2023-05-23T15:38:04;20.90;93.20
770;DHT22;368;48.698;9.116;2023-05-23T15:40:30;20.90;94.00
770;DHT22;368;48.698;9.116;2023-05-23T15:42:57;21.00;93.20
770;DHT22;368;48.698;9.116;2023-05-23T15:45:25;20.50;93.30
770;DHT22;368;48.698;9.116;2023-05-23T15:47:52;20.60;93.40
770;DHT22;368;48.698;9.116;2023-05-23T15:50:19;20.70;92.90
770;DHT22;368;48.698;9.116;2023-05-23T15:52:45;20.20;94.10
770;DHT22;368;48.698;9.116;2023-05-23T15:55:12;19.80;94.20
770;DHT22;368;48.698;9.116;2023-05-23T15:57:39;19.80;94.80
770;DHT22;368;48.698;9.116;2023-05-23T16:00:07;19.60;95.70
770;DHT22;368;48.698;9.116;2023-05-23T16:02:35;19.50;95.30
770;DHT22;368;48.698;9.116;2023-05-23T16:05:02;19.40;95.70
770;DHT22;368;48.698;9.116;2023-05-23T16:07:29;19.60;95.60
770;DHT22;368;48.698;9.116;2023-05-23T16:09:55;19.10;96.00
770;DHT22;368;48.698;9.116;2023-05-23T16:12:22;19.50;96.40
770;DHT22;368;48.698;9.116;2023-05-23T16:14:49;19.60;95.20
770;DHT22;368;48.698;9.116;2023-05-23T16:17:16;19.50;94.70
770;DHT22;368;48.698;9.116;2023-05-23T16:19:44;19.20;95.20
770;DHT22;368;48.698;9.116;2023-05-23T16:22:10;19.00;95.10
770;DHT22;368;48.698;9.116;2023-05-23T16:24:37;18.90;95.20
770;DHT22;368;48.698;9.116;2023-05-23T16:27:04;18.60;96.20
770;DHT22;368;48.698;9.116;2023-05-23T16:29:31;18.60;96.10
770;DHT22;368;48.698;9.116;2023-05-23T16:31:58;18.80;96.60
770;DHT22;368;48.698;9.116;2023-05-23T16:34:25;18.60;96.80
770;DHT22;368;48.698;9.116;2023-05-23T16:36:53;18.60;97.30
770;DHT22;368;48.698;9.116;2023-05-23T16:39:20;18.50;97.70
770;DHT22;368;48.698;9.116;2023-05-23T16:41:46;18.60;97.80
770;DHT22;368;48.698;9.116;2023-05-23T16:44:13;18.60;97.90
770;DHT22;368;48.698;9.116;2023-05-23T16:46:40;18.60;97.80
770;DHT22;368;48.698;9.116;2023-05-23T16:49:07;18.40;98.70
770;DHT22;368;48.698;9.116;2023-05-23T16:51:33;18.50;98.20
770;DHT22;368;48.698;9.116;2023-05-23T16:54:01;18.40;98.60
770;DHT22;368;48.698;9.116;2023-05-23T16:56:28;18.00;98.40
770;DHT22;368;48.698;9.116;2023-05-23T16:58:55;18.10;98.50